Time;durP1;ratioP1;P1;durP2;ratioP2;P2;SDS_P1;SDS_P2;PMS_P1;PMS_P2;Temp;Humidity;BMP_temperature;BMP_pressure;BME280_temperature;BME280_humidity;BME280_pressure;Samples;Min_cycle;Max_cycle;Signal;HPM_P1;HPM_P2
2023/04/17 00:02:25;;;;;;;28.13;17.02;;;;;;;10.20;89.35;102505.63;5012776;28;20032;-68
2023/04/17 00:04:51;;;;;;;28.50;17.35;;;;;;;10.20;89.08;102502.97;5013229;28;20050;-68
2023/04/17 00:07:21;;;;;;;28.67;16.42;;;;;;;10.24;89.49;102500.53;5013268;28;20034;-66
2023/04/17 00:09:49;;;;;;;27.48;17.05;;;;;;;10.23;88.96;102496.03;5013130;28;20026;-67
2023/04/17 00:12:15;;;;;;;30.23;16.60;;;;;;;10.23;89.46;102498.69;4995588;28;20050;-66
2023/04/17 00:14:40;;;;;;;26.95;16.40;;;;;;;10.23;89.15;102498.69;4995036;28;20033;-68
2023/04/17 00:17:06;;;;;;;26.02;16.10;;;;;;;10.21;88.97;102492.44;5012870;28;20026;-69
2023/04/17 00:19:31;;;;;;;29.75;16.92;;;;;;;10.17;88.95;102492.28;5012840;28;20479;-67
2023/04/17 00:21:56;;;;;;;28.23;16.40;;;;;;;10.14;88.90;102487.75;5012771;28;20063;-67
2023/04/17 00:24:22;;;;;;;30.15;17.20;;;;;;;10.14;88.77;102484.22;5012983;28;20022;-67
2023/04/17 00:26:47;;;;;;;35.67;17.63;;;;;;;10.06;88.80;102483.03;5012815;28;20356;-66
2023/04/17 00:29:12;;;;;;;26.70;17.40;;;;;;;10.07;88.75;102479.56;5012871;28;20104;-67
2023/04/17 00:31:38;;;;;;;28.80;17.17;;;;;;;10.04;88.63;102483.88;5012780;28;20058;-68
2023/04/17 00:34:03;;;;;;;25.55;15.93;;;;;;;10.05;88.48;102490.03;5013331;28;20493;-66
2023/04/17 00:36:30;;;;;;;27.42;17.20;;;;;;;10.02;88.71;102488.22;5013331;28;20037;-67
2023/04/17 00:38:56;;;;;;;30.20;17.40;;;;;;;10.01;88.60;102489.03;5014892;28;20044;-67
2023/04/17 00:41:22;;;;;;;27.63;16.95;;;;;;;10.00;88.86;102492.50;5016443;28;20446;-69
2023/04/17 00:43:47;;;;;;;30.92;17.23;;;;;;;10.04;88.98;102488.25;5016329;28;20117;-66
2023/04/17 00:46:13;;;;;;;29.73;17.30;;;;;;;10.11;88.79;102484.13;5016330;28;20034;-67
2023/04/17 00:48:39;;;;;;;31.38;17.45;;;;;;;10.12;88.52;102480.63;5016303;28;20089;-66
2023/04/17 00:51:05;;;;;;;29.17;16.90;;;;;;;10.11;88.45;102482.38;5016360;28;20037;-67
2023/04/17 00:53:31;;;;;;;28.90;18.13;;;;;;;10.03;88.83;102470.63;4998877;28;20022;-67
2023/04/17 00:56:04;;;;;;;34.33;18.20;;;;;;;9.98;89.43;102473.09;5016141;28;20117;-66
2023/04/17 00:58:30;;;;;;;26.48;17.10;;;;;;;10.02;89.38;102468.78;5016043;28;20104;-67
2023/04/17 01:00:55;;;;;;;26.40;17.00;;;;;;;10.04;89.19;102472.41;4998484;28;20110;-70
2023/04/17 01:03:21;;;;;;;27.42;16.55;;;;;;;10.10;89.42;102470.00;5016029;28;20026;-67
2023/04/17 01:05:49;;;;;;;29.88;17.38;;;;;;;10.08;89.05;102473.44;5016254;28;20096;-69
2023/04/17 01:08:15;;;;;;;27.45;18.25;;;;;;;10.00;89.30;102471.38;5016134;28;20030;-68
2023/04/17 01:10:41;;;;;;;28.73;17.23;;;;;;;10.01;89.19;102474.91;5015909;28;20387;-68
2023/04/17 01:13:07;;;;;;;28.17;17.75;;;;;;;9.99;89.08;102476.63;5015456;28;20517;-66
2023/04/17 01:15:33;;;;;;;31.35;17.52;;;;;;;10.02;89.14;102474.06;5015623;28;20025;-68
2023/04/17 01:17:59;;;;;;;26.10;17.48;;;;;;;10.01;89.02;102477.56;5015985;28;20129;-67
2023/04/17 01:20:28;;;;;;;31.27;18.05;;;;;;;10.04;88.86;102475.94;5015727;28;20030;-69
2023/04/17 01:22:54;;;;;;;29.65;17.77;;;;;;;10.02;88.38;102482.00;5015843;28;20120;-69
2023/04/17 01:25:20;;;;;;;28.90;16.67;;;;;;;10.02;88.29;102476.72;4997838;28;20064;-67
2023/04/17 01:27:45;;;;;;;26.58;16.33;;;;;;;10.00;88.11;102478.41;5015393;28;20033;-67
2023/04/17 01:30:11;;;;;;;29.98;17.92;;;;;;;10.04;88.55;102478.59;5015711;28;20030;-67
2023/04/17 01:32:37;;;;;;;30.02;17.25;;;;;;;10.08;88.39;102476.97;5015368;28;20033;-67
2023/04/17 01:35:02;;;;;;;28.15;17.75;;;;;;;10.03;88.17;102483.81;4998168;28;20032;-67
2023/04/17 01:37:28;;;;;;;23.58;14.38;;;;;;;10.04;87.94;102490.91;5015558;28;20095;-68
2023/04/17 01:39:54;;;;;;;27.00;17.58;;;;;;;9.95;88.05;102483.50;5015234;28;20372;-68
2023/04/17 01:42:20;;;;;;;28.92;17.25;;;;;;;9.87;88.18;102484.06;5015222;28;20026;-67
2023/04/17 01:44:46;;;;;;;28.92;16.83;;;;;;;9.86;88.62;102480.50;5014987;28;20105;-68
2023/04/17 01:47:11;;;;;;;27.98;17.55;;;;;;;9.87;88.54;102482.31;5015208;28;20156;-68
2023/04/17 01:49:37;;;;;;;25.88;16.83;;;;;;;9.85;88.62;102478.72;5015157;28;20022;-68
2023/04/17 01:52:02;;;;;;;30.42;16.90;;;;;;;9.84;88.55;102479.53;5015020;28;20029;-68
2023/04/17 01:54:27;;;;;;;27.60;16.25;;;;;;;9.89;88.79;102482.34;5014919;28;20026;-67
2023/04/17 01:56:53;;;;;;;25.83;16.40;;;;;;;9.95;88.53;102480.88;5014978;28;20045;-68
2023/04/17 01:59:18;;;;;;;27.00;17.25;;;;;;;9.97;88.22;102481.81;5015080;28;20084;-69
2023/04/17 02:01:44;;;;;;;28.15;16.50;;;;;;;9.95;88.16;102477.34;5015011;28;20527;-66
2023/04/17 02:04:09;;;;;;;27.77;16.88;;;;;;;9.89;87.54;102479.72;5015000;28;20030;-69
2023/04/17 02:06:35;;;;;;;27.08;16.73;;;;;;;9.85;88.00;102478.72;5014850;28;20038;-67
2023/04/17 02:09:01;;;;;;;26.02;15.20;;;;;;;9.88;88.36;102480.56;4997274;28;20026;-68
2023/04/17 02:11:26;;;;;;;28.67;16.88;;;;;;;9.85;87.85;102483.06;5014707;28;20037;-68
2023/04/17 02:13:52;;;;;;;25.05;16.10;;;;;;;9.88;88.06;102484.09;5013854;28;20083;-67
2023/04/17 02:16:20;;;;;;;26.30;15.90;;;;;;;9.89;87.74;102485.94;5013566;28;20064;-68
2023/04/17 02:18:46;;;;;;;24.77;16.20;;;;;;;9.91;87.78;102485.97;5013663;28;20033;-67
2023/04/17 02:21:12;;;;;;;29.13;15.73;;;;;;;9.94;87.78;102483.47;5013674;28;20510;-68
2023/04/17 02:23:37;;;;;;;24.20;15.63;;;;;;;9.88;88.07;102481.47;5013527;28;20026;-68
2023/04/17 02:26:02;;;;;;;25.23;16.20;;;;;;;9.82;87.87;102473.31;5013569;28;20498;-67
2023/04/17 02:28:28;;;;;;;26.58;17.00;;;;;;;9.75;88.08;102479.16;5013843;28;20036;-67
2023/04/17 02:30:53;;;;;;;29.83;17.15;;;;;;;9.77;88.03;102480.16;5014071;28;20084;-67
2023/04/17 02:33:19;;;;;;;25.08;16.58;;;;;;;9.74;88.25;102480.00;4996505;28;20033;-66
2023/04/17 02:35:44;;;;;;;28.73;17.10;;;;;;;9.74;88.16;102478.28;5013541;28;20109;-67
2023/04/17 02:38:10;;;;;;;28.65;16.48;;;;;;;9.73;88.40;102483.50;5013484;28;20057;-69
2023/04/17 02:40:35;;;;;;;28.80;17.73;;;;;;;9.68;88.29;102480.69;5013806;28;20026;-68
2023/04/17 02:43:00;;;;;;;31.70;16.95;;;;;;;9.62;88.76;102485.69;5013171;28;20539;-68
2023/04/17 02:45:26;;;;;;;26.55;16.25;;;;;;;9.64;88.74;102484.03;5013126;28;20030;-67
2023/04/17 02:47:51;;;;;;;29.35;16.95;;;;;;;9.64;89.21;102488.41;5013288;28;20411;-68
2023/04/17 02:50:17;;;;;;;30.05;16.55;;;;;;;9.61;88.78;102489.19;5013160;28;20057;-65
2023/04/17 02:52:42;;;;;;;29.38;17.58;;;;;;;9.57;88.89;102484.59;5013186;28;20026;-67
2023/04/17 02:55:08;;;;;;;27.10;17.13;;;;;;;9.57;88.94;102486.34;5012995;28;20022;-66
2023/04/17 02:57:34;;;;;;;27.67;17.30;;;;;;;9.51;89.42;102493.19;5013333;28;20037;-68
2023/04/17 03:00:00;;;;;;;26.05;16.08;;;;;;;9.54;89.55;102488.00;5013142;28;20069;-68
2023/04/17 03:02:28;;;;;;;28.25;17.23;;;;;;;9.57;89.51;102495.16;5012665;28;20038;-66
2023/04/17 03:04:53;;;;;;;28.33;18.27;;;;;;;9.48;89.42;102489.50;5012999;28;20080;-66
2023/04/17 03:07:22;;;;;;;28.58;17.42;;;;;;;9.41;90.29;102490.06;5012973;28;20038;-67
2023/04/17 03:09:48;;;;;;;30.92;18.00;;;;;;;9.43;90.05;102488.44;5012686;28;20494;-67
2023/04/17 03:12:14;;;;;;;27.98;16.83;;;;;;;9.47;90.29;102490.34;4973796;28;1127175;-69
2023/04/17 03:14:40;;;;;;;29.02;17.58;;;;;;;9.46;90.05;102501.72;5013571;28;20038;-67
2023/04/17 03:17:08;;;;;;;29.60;17.85;;;;;;;9.38;90.38;102493.50;5013497;28;20022;-67
2023/04/17 03:19:34;;;;;;;28.48;17.52;;;;;;;9.38;90.77;102495.22;4996180;28;20029;-68
2023/04/17 03:22:00;;;;;;;28.50;16.88;;;;;;;9.45;90.75;102507.84;5013253;28;20026;-68
2023/04/17 03:24:26;;;;;;;29.17;17.98;;;;;;;9.40;90.67;102505.00;5013161;28;20506;-66
2023/04/17 03:26:51;;;;;;;26.50;17.58;;;;;;;9.42;90.35;102497.16;4995800;28;20042;-67
2023/04/17 03:29:17;;;;;;;30.35;17.67;;;;;;;9.45;90.54;102497.28;5013648;28;20030;-68
2023/04/17 03:31:42;;;;;;;23.65;14.20;;;;;;;9.51;90.58;102495.81;5013484;28;20088;-67
2023/04/17 03:34:07;;;;;;;29.27;16.60;;;;;;;9.48;90.41;102498.31;4995755;28;20105;-66
2023/04/17 03:36:33;;;;;;;29.23;17.52;;;;;;;9.45;90.33;102495.53;5013209;28;20423;-67
2023/04/17 03:38:58;;;;;;;30.38;18.17;;;;;;;9.48;90.74;102495.69;5013103;28;20025;-66
2023/04/17 03:41:24;;;;;;;32.53;18.48;;;;;;;9.47;90.57;102496.53;4995609;28;20021;-67
2023/04/17 03:43:49;;;;;;;26.80;17.08;;;;;;;9.53;90.43;102487.97;5013280;28;20038;-68
2023/04/17 03:46:15;;;;;;;31.92;18.52;;;;;;;9.51;90.36;102497.56;5013138;28;20026;-67
2023/04/17 03:48:40;;;;;;;31.58;17.92;;;;;;;9.47;90.24;102498.28;5013314;28;20357;-67
2023/04/17 03:51:05;;;;;;;28.50;17.80;;;;;;;9.45;90.82;102494.66;5013141;28;20038;-67
2023/04/17 03:53:31;;;;;;;28.25;17.98;;;;;;;9.50;90.72;102490.47;5012923;28;20040;-68
2023/04/17 03:55:56;;;;;;;31.17;18.05;;;;;;;9.50;90.46;102494.00;5012933;28;20499;-68
2023/04/17 03:58:22;;;;;;;32.17;17.90;;;;;;;9.48;90.04;102493.03;5013036;28;20033;-66
2023/04/17 04:00:48;;;;;;;27.95;17.58;;;;;;;9.40;90.48;102483.91;5013021;28;20117;-66
2023/04/17 04:03:14;;;;;;;29.65;17.65;;;;;;;9.40;90.28;102486.53;5013163;28;20066;-66
2023/04/17 04:05:39;;;;;;;26.48;18.27;;;;;;;9.39;90.75;102490.03;5013278;28;20615;-67
2023/04/17 04:08:05;;;;;;;28.63;17.45;;;;;;;9.38;90.96;102489.94;4995365;28;20030;-66
2023/04/17 04:10:31;;;;;;;31.88;18.65;;;;;;;9.34;90.89;102488.03;5012815;28;20084;-68
2023/04/17 04:12:56;;;;;;;28.98;18.50;;;;;;;9.36;90.90;102492.53;4996060;28;20380;-69
2023/04/17 04:15:22;;;;;;;29.20;17.75;;;;;;;9.46;90.74;102491.16;5016801;28;20101;-67
2023/04/17 04:17:47;;;;;;;25.20;14.60;;;;;;;9.54;90.74;102485.38;5016879;28;20030;-66
2023/04/17 04:20:13;;;;;;;29.58;17.70;;;;;;;9.52;90.48;102492.34;5017041;28;20396;-67
2023/04/17 04:22:38;;;;;;;28.42;18.05;;;;;;;9.47;90.73;102500.91;5016768;28;20033;-68
2023/04/17 04:25:05;;;;;;;29.63;18.00;;;;;;;9.45;90.84;102499.94;5016585;28;20033;-68
2023/04/17 04:27:31;;;;;;;32.03;17.92;;;;;;;9.41;91.18;102501.53;5016852;28;20386;-67
2023/04/17 04:30:00;;;;;;;28.08;17.88;;;;;;;9.41;91.42;102503.28;5016842;28;20041;-68
2023/04/17 04:32:27;;;;;;;31.73;17.63;;;;;;;9.42;91.38;102500.72;5016519;28;20041;-66
2023/04/17 04:34:57;;;;;;;30.45;18.23;;;;;;;9.48;91.63;102505.34;5016434;28;20479;-67
2023/04/17 04:37:28;;;;;;;30.63;18.30;;;;;;;9.50;91.16;102516.84;5016543;28;20034;-67
2023/04/17 04:40:00;;;;;;;30.95;18.58;;;;;;;9.52;90.76;102507.28;5016657;28;20037;-67
2023/04/17 04:42:29;;;;;;;28.42;17.83;;;;;;;9.49;91.26;102512.41;5016436;28;20030;-68
2023/04/17 04:44:54;;;;;;;30.75;18.23;;;;;;;9.51;91.05;102511.66;4999138;28;20029;-67
2023/04/17 04:47:20;;;;;;;30.90;17.77;;;;;;;9.49;91.49;102507.13;5016169;28;20022;-67
2023/04/17 04:49:46;;;;;;;33.28;18.75;;;;;;;9.50;91.58;102514.22;5016423;28;20026;-66
2023/04/17 04:52:11;;;;;;;30.83;18.08;;;;;;;9.47;91.46;102511.47;5015690;28;20033;-67
2023/04/17 04:54:36;;;;;;;34.85;18.50;;;;;;;9.47;91.54;102514.09;5016075;28;20105;-67
2023/04/17 04:57:02;;;;;;;31.60;18.00;;;;;;;9.47;91.58;102514.09;4982374;28;20167;-68
2023/04/17 04:59:27;;;;;;;31.08;18.55;;;;;;;9.43;91.41;102506.91;5016115;28;20506;-67
2023/04/17 05:01:53;;;;;;;30.65;18.52;;;;;;;9.41;91.98;102512.09;4998500;28;20464;-67
2023/04/17 05:04:18;;;;;;;34.13;20.13;;;;;;;9.41;92.14;102512.09;5016121;28;20061;-66
2023/04/17 05:06:44;;;;;;;32.13;18.88;;;;;;;9.41;92.25;102525.28;5015822;28;20491;-67
2023/04/17 05:09:09;;;;;;;38.38;19.60;;;;;;;9.40;92.30;102525.22;5015527;28;20034;-66
2023/04/17 05:11:35;;;;;;;35.40;18.25;;;;;;;9.40;92.65;102519.94;4981934;28;20038;-66
2023/04/17 05:14:00;;;;;;;33.85;20.33;;;;;;;9.39;92.59;102524.31;5015570;28;20030;-66
2023/04/17 05:16:26;;;;;;;36.45;20.90;;;;;;;9.36;92.65;102534.75;5015808;28;20499;-67
2023/04/17 05:18:51;;;;;;;35.88;21.50;;;;;;;9.34;92.81;102536.44;5016018;28;20058;-66
2023/04/17 05:21:17;;;;;;;37.78;20.17;;;;;;;9.29;93.21;102530.03;5016372;28;20057;-66
2023/04/17 05:23:42;;;;;;;34.50;19.48;;;;;;;9.30;93.48;102534.50;5015638;28;20155;-66
2023/04/17 05:26:07;;;;;;;34.78;20.30;;;;;;;9.30;93.53;102538.88;5015526;28;20244;-68
2023/04/17 05:28:33;;;;;;;39.05;20.90;;;;;;;9.31;93.48;102544.19;5015603;28;20084;-67
2023/04/17 05:30:58;;;;;;;37.40;21.90;;;;;;;9.28;93.53;102538.78;4998021;28;20034;-67
2023/04/17 05:33:24;;;;;;;36.17;21.10;;;;;;;9.24;93.68;102539.47;5015682;28;20065;-67
2023/04/17 05:35:50;;;;;;;36.92;21.20;;;;;;;9.30;93.81;102541.50;5015304;28;20476;-67
2023/04/17 05:38:15;;;;;;;36.75;21.55;;;;;;;9.26;93.55;102543.09;5015400;28;20065;-65
2023/04/17 05:40:41;;;;;;;37.08;20.77;;;;;;;9.30;93.92;102541.50;5015689;28;20030;-67
2023/04/17 05:43:08;;;;;;;38.90;20.58;;;;;;;9.31;93.70;102540.66;5015816;28;20041;-67
2023/04/17 05:45:33;;;;;;;38.22;21.23;;;;;;;9.31;93.77;102556.50;5016592;28;20057;-68
2023/04/17 05:47:59;;;;;;;36.58;21.27;;;;;;;9.33;94.21;102545.16;5015279;28;20026;-67
2023/04/17 05:50:24;;;;;;;44.33;22.58;;;;;;;9.33;93.63;102545.16;5015184;28;20030;-67
2023/04/17 05:52:50;;;;;;;38.47;22.20;;;;;;;9.33;93.69;102552.16;4997476;28;20503;-69
2023/04/17 05:55:15;;;;;;;39.65;21.77;;;;;;;9.31;93.80;102552.13;5014966;28;20087;-66
2023/04/17 05:57:41;;;;;;;39.42;21.42;;;;;;;9.33;93.85;102554.81;5015015;28;20084;-67
2023/04/17 06:00:11;;;;;;;39.92;22.23;;;;;;;9.30;93.98;102549.41;5015182;28;20029;-66
2023/04/17 06:02:36;;;;;;;41.05;22.33;;;;;;;9.33;93.88;102549.53;5014819;28;20076;-67
2023/04/17 06:05:05;;;;;;;42.28;21.65;;;;;;;9.39;94.26;102552.44;4997170;28;20478;-68
2023/04/17 06:07:32;;;;;;;39.90;22.80;;;;;;;9.37;93.53;102549.72;4997522;28;20022;-67
2023/04/17 06:09:57;;;;;;;40.88;21.90;;;;;;;9.40;93.61;102556.88;5014320;28;20572;-66
2023/04/17 06:12:23;;;;;;;40.20;21.88;;;;;;;9.39;93.35;102565.63;5014569;28;20049;-66
2023/04/17 06:14:48;;;;;;;38.97;21.60;;;;;;;9.38;93.23;102564.75;5014655;28;20030;-66
2023/04/17 06:17:14;;;;;;;37.25;22.73;;;;;;;9.38;93.45;102558.53;5014576;28;20044;-67
2023/04/17 06:19:39;;;;;;;42.85;23.38;;;;;;;9.34;93.49;102564.56;5014322;28;20030;-68
2023/04/17 06:22:05;;;;;;;38.90;21.33;;;;;;;9.39;93.66;102565.63;5014445;28;20026;-65
2023/04/17 06:24:30;;;;;;;42.33;22.83;;;;;;;9.32;93.66;102571.47;5014695;28;20037;-66
2023/04/17 06:26:56;;;;;;;39.33;23.02;;;;;;;9.29;93.49;102572.22;5014476;28;20026;-66
2023/04/17 06:29:22;;;;;;;37.97;22.27;;;;;;;9.26;93.95;102578.28;5014506;28;20026;-67
2023/04/17 06:31:47;;;;;;;36.80;21.92;;;;;;;9.29;94.18;102569.59;5014482;28;20053;-68
2023/04/17 06:34:13;;;;;;;36.47;21.33;;;;;;;9.35;94.37;102572.53;5014315;28;20026;-67
2023/04/17 06:36:38;;;;;;;37.45;21.77;;;;;;;9.40;93.72;102572.72;5013424;28;20044;-67
2023/04/17 06:39:03;;;;;;;36.67;21.45;;;;;;;9.48;93.78;102573.94;4996594;28;20407;-68
2023/04/17 06:41:29;;;;;;;37.00;22.13;;;;;;;9.49;93.54;102576.63;5014303;28;20034;-67
2023/04/17 06:43:55;;;;;;;38.95;22.80;;;;;;;9.52;93.51;102582.06;5013910;28;20034;-69
2023/04/17 06:46:21;;;;;;;41.38;23.08;;;;;;;9.58;93.53;102578.78;4996961;28;20030;-68
2023/04/17 06:48:48;;;;;;;39.28;22.02;;;;;;;9.63;93.41;102585.13;4996684;28;20030;-66
2023/04/17 06:51:13;;;;;;;39.17;21.67;;;;;;;9.66;92.76;102581.75;4996381;28;20037;-67
2023/04/17 06:53:39;;;;;;;36.47;21.17;;;;;;;9.69;92.19;102589.81;5013811;28;20022;-66
2023/04/17 06:56:05;;;;;;;33.72;21.55;;;;;;;9.68;92.29;102591.53;5013688;28;20038;-68
2023/04/17 06:58:30;;;;;;;38.85;22.08;;;;;;;9.65;92.18;102588.75;4996182;28;20121;-66
2023/04/17 07:00:56;;;;;;;37.58;21.70;;;;;;;9.63;92.55;102587.78;5013935;28;20361;-68
2023/04/17 07:03:21;;;;;;;36.60;21.45;;;;;;;9.61;92.61;102593.84;5013925;28;20036;-67
2023/04/17 07:05:47;;;;;;;36.13;21.80;;;;;;;9.59;92.49;102598.16;5013657;28;20041;-68
2023/04/17 07:08:14;;;;;;;35.42;21.67;;;;;;;9.63;92.59;102597.44;5013632;28;20629;-64
2023/04/17 07:10:40;;;;;;;39.67;21.83;;;;;;;9.65;91.83;102601.06;5013672;28;20022;-68
2023/04/17 07:13:05;;;;;;;36.60;20.90;;;;;;;9.69;92.13;102600.34;5013310;28;20503;-68
2023/04/17 07:15:31;;;;;;;35.28;21.98;;;;;;;9.70;91.66;102605.69;4995871;28;20484;-68
2023/04/17 07:17:56;;;;;;;34.47;22.02;;;;;;;9.72;91.24;102608.38;5013666;28;20037;-67
2023/04/17 07:20:22;;;;;;;39.90;21.65;;;;;;;9.72;91.09;102611.03;5013332;28;20534;-67
2023/04/17 07:22:48;;;;;;;36.50;22.15;;;;;;;9.72;91.25;102617.25;5013481;28;20037;-65
2023/04/17 07:25:14;;;;;;;39.17;22.10;;;;;;;9.81;91.26;102619.34;5013369;28;20034;-64
2023/04/17 07:27:40;;;;;;;38.78;22.38;;;;;;;9.82;90.96;102625.53;5013456;28;20506;-66
2023/04/17 07:30:07;;;;;;;37.65;22.42;;;;;;;9.87;91.15;102622.25;5013813;28;20033;-65
2023/04/17 07:32:32;;;;;;;37.42;22.45;;;;;;;9.89;90.65;102627.59;5013511;28;20032;-67
2023/04/17 07:34:58;;;;;;;48.88;29.33;;;;;;;9.94;90.52;102628.69;5013094;28;20026;-65
2023/04/17 07:37:23;;;;;;;39.15;23.42;;;;;;;10.03;90.16;102622.06;4995640;28;20034;-67
2023/04/17 07:39:49;;;;;;;41.83;23.63;;;;;;;10.09;90.07;102626.69;5013266;28;20056;-67
2023/04/17 07:42:15;;;;;;;43.08;22.75;;;;;;;10.08;89.71;102629.28;5013250;28;20026;-67
2023/04/17 07:44:40;;;;;;;37.97;23.02;;;;;;;10.09;89.84;102631.06;5013058;28;20029;-66
2023/04/17 07:47:06;;;;;;;38.17;22.90;;;;;;;10.19;89.87;102631.53;5013112;28;20080;-67
2023/04/17 07:49:32;;;;;;;37.65;22.92;;;;;;;10.25;89.54;102636.19;5013035;28;20030;-66
2023/04/17 07:51:58;;;;;;;34.58;21.52;;;;;;;10.32;89.39;102626.75;5013450;28;20065;-66
2023/04/17 07:54:24;;;;;;;37.38;23.40;;;;;;;10.33;88.94;102620.66;4979416;28;20113;-66
2023/04/17 07:56:49;;;;;;;38.03;23.35;;;;;;;10.36;88.67;102632.22;5013292;28;20080;-65
2023/04/17 07:59:15;;;;;;;37.00;22.65;;;;;;;10.43;88.38;102638.66;5013006;28;20555;-66
2023/04/17 08:01:41;;;;;;;32.90;21.90;;;;;;;10.52;88.05;102641.66;5013312;28;20026;-67
2023/04/17 08:04:07;;;;;;;40.15;23.38;;;;;;;10.58;87.90;102638.34;5012935;28;20026;-68
2023/04/17 08:06:32;;;;;;;33.78;21.30;;;;;;;10.62;87.21;102640.28;4995384;28;20384;-69
2023/04/17 08:08:59;;;;;;;33.42;20.73;;;;;;;10.65;87.08;102645.69;4995430;28;20112;-70
2023/04/17 08:11:25;;;;;;;33.55;20.83;;;;;;;10.64;86.31;102635.97;5013066;28;20030;-67
2023/04/17 08:13:50;;;;;;;36.92;20.48;;;;;;;10.68;86.86;102637.88;5012734;28;20053;-66
2023/04/17 08:16:16;;;;;;;34.22;21.50;;;;;;;10.80;86.44;102638.38;5012873;28;20266;-67
2023/04/17 08:18:42;;;;;;;31.65;20.20;;;;;;;10.96;85.91;102635.47;5012652;28;20030;-69
2023/04/17 08:21:08;;;;;;;35.58;20.67;;;;;;;11.02;84.63;102643.63;5012945;28;20049;-67
2023/04/17 08:23:33;;;;;;;36.55;21.83;;;;;;;11.07;84.09;102638.50;5012606;28;20471;-70
2023/04/17 08:25:59;;;;;;;34.53;20.55;;;;;;;11.15;84.64;102644.09;5013096;28;20030;-74
2023/04/17 08:28:24;;;;;;;32.70;20.77;;;;;;;11.25;83.41;102639.19;5012867;28;20033;-70
2023/04/17 08:30:50;;;;;;;29.67;19.23;;;;;;;11.38;83.23;102639.63;5013193;28;20049;-70
2023/04/17 08:33:17;;;;;;;33.17;20.77;;;;;;;11.47;82.60;102642.59;4995156;28;20022;-68
2023/04/17 08:35:43;;;;;;;34.10;20.75;;;;;;;11.57;81.71;102651.78;5012973;28;20065;-66
2023/04/17 08:38:12;;;;;;;33.35;20.30;;;;;;;11.56;81.04;102649.97;5012848;28;20073;-69
2023/04/17 08:40:40;;;;;;;31.67;20.23;;;;;;;11.51;80.54;102649.81;5012844;28;20045;-67
2023/04/17 08:43:14;;;;;;;32.78;20.40;;;;;;;11.47;80.96;102651.44;4995651;28;20109;-69
2023/04/17 08:45:48;;;;;;;33.50;20.58;;;;;;;11.49;80.74;102655.06;5012420;28;20041;-69
2023/04/17 08:48:14;;;;;;;31.83;20.25;;;;;;;11.53;80.51;102654.31;5012795;28;20038;-68
2023/04/17 08:50:41;;;;;;;33.03;20.48;;;;;;;11.50;80.66;102646.25;5012580;28;20030;-73
2023/04/17 08:53:07;;;;;;;31.13;19.38;;;;;;;11.58;81.12;102649.19;4995234;28;20105;-66
2023/04/17 08:55:32;;;;;;;34.67;21.13;;;;;;;11.63;80.65;102649.34;5012685;28;20153;-65
2023/04/17 08:58:03;;;;;;;30.92;19.35;;;;;;;11.71;80.93;102650.53;5012414;28;20037;-66
2023/04/17 09:00:32;;;;;;;31.42;20.48;;;;;;;11.74;80.07;102648.00;5015444;28;20034;-67
2023/04/17 09:02:59;;;;;;;30.45;19.67;;;;;;;11.83;79.38;102647.44;5016227;28;20113;-65
2023/04/17 09:05:29;;;;;;;30.95;20.58;;;;;;;11.86;78.92;102651.09;5016031;28;20042;-68
2023/04/17 09:08:08;;;;;;;31.08;20.08;;;;;;;11.93;79.67;102647.78;5016055;28;20041;-66
2023/04/17 09:10:45;;;;;;;31.92;20.55;;;;;;;12.03;78.90;102649.00;5015847;28;20026;-66
2023/04/17 09:13:13;;;;;;;29.85;19.92;;;;;;;12.07;77.27;102652.66;4998327;28;20045;-67
2023/04/17 09:15:39;;;;;;;35.60;21.02;;;;;;;12.07;77.39;102648.25;5015717;28;20038;-66
2023/04/17 09:18:05;;;;;;;32.20;20.10;;;;;;;12.07;77.57;102648.25;5015956;28;20484;-67
2023/04/17 09:20:31;;;;;;;32.15;20.35;;;;;;;12.08;77.28;102644.78;4998190;28;20022;-67
2023/04/17 09:23:04;;;;;;;31.38;21.08;;;;;;;12.19;77.85;102647.78;5015775;28;20030;-69
2023/04/17 09:25:30;;;;;;;33.95;20.40;;;;;;;12.38;77.92;102651.94;4998073;28;20053;-69
2023/04/17 09:28:10;;;;;;;31.67;19.73;;;;;;;12.64;77.86;102642.16;5015621;28;20030;-69
2023/04/17 09:30:37;;;;;;;31.27;19.35;;;;;;;12.85;75.81;102649.84;5015674;28;20468;-68
2023/04/17 09:33:04;;;;;;;29.45;20.23;;;;;;;12.95;74.32;102655.50;5015724;28;20030;-65
2023/04/17 09:35:30;;;;;;;32.03;20.35;;;;;;;12.97;73.30;102650.22;5015768;28;20022;-66
2023/04/17 09:37:58;;;;;;;28.35;19.10;;;;;;;13.04;73.01;102647.78;5015318;28;20030;-67
2023/04/17 09:40:26;;;;;;;31.50;19.60;;;;;;;13.22;73.27;102641.22;5015324;28;20430;-66
2023/04/17 09:43:03;;;;;;;32.50;18.98;;;;;;;13.59;73.45;102642.28;5015499;28;20099;-67
2023/04/17 09:45:36;;;;;;;30.15;19.52;;;;;;;13.74;71.42;102643.59;5015206;28;20117;-67
2023/04/17 09:48:11;;;;;;;32.13;19.60;;;;;;;13.87;70.52;102649.22;5018068;28;20038;-65
2023/04/17 09:50:37;;;;;;;33.78;19.98;;;;;;;14.11;70.17;102647.19;4997469;28;20030;-67
2023/04/17 09:53:04;;;;;;;29.40;19.55;;;;;;;14.35;69.71;102644.25;5014869;28;20030;-66
2023/04/17 09:55:33;;;;;;;28.73;18.98;;;;;;;14.66;68.29;102645.91;5014860;28;20520;-66
2023/04/17 09:58:03;;;;;;;31.50;19.42;;;;;;;14.89;64.71;102658.81;4997233;28;20084;-67
2023/04/17 10:00:29;;;;;;;29.27;19.45;;;;;;;14.96;63.17;102650.09;4997128;28;20045;-67
2023/04/17 10:02:57;;;;;;;29.08;19.83;;;;;;;15.15;64.99;102648.72;5014849;28;20056;-65
2023/04/17 10:05:28;;;;;;;28.80;19.77;;;;;;;15.75;63.91;102641.03;5014692;28;20026;-66
2023/04/17 10:07:55;;;;;;;28.05;19.40;;;;;;;16.25;61.69;102640.13;5014621;28;20036;-66
2023/04/17 10:10:21;;;;;;;29.00;18.77;;;;;;;16.48;60.77;102636.03;5013554;28;20088;-67
2023/04/17 10:12:48;;;;;;;33.60;20.38;;;;;;;16.39;59.27;102637.66;5014044;28;20129;-67
2023/04/17 10:15:14;;;;;;;28.85;19.38;;;;;;;16.42;58.91;102635.94;5014173;28;20092;-68
2023/04/17 10:17:40;;;;;;;31.92;18.80;;;;;;;16.57;58.45;102629.03;5014932;28;20034;-68
2023/04/17 10:20:16;;;;;;;27.80;19.13;;;;;;;16.93;58.16;102626.03;5014645;28;20384;-68
2023/04/17 10:22:52;;;;;;;29.20;18.80;;;;;;;17.10;55.06;102635.16;5014693;28;20037;-67
2023/04/17 10:25:25;;;;;;;30.75;18.25;;;;;;;17.25;54.29;102627.31;5014419;28;20116;-68
2023/04/17 10:27:57;;;;;;;26.52;17.92;;;;;;;17.42;54.06;102632.84;5014238;28;20026;-70
2023/04/17 10:30:25;;;;;;;30.67;19.15;;;;;;;17.59;53.25;102622.34;5014110;28;20395;-69
2023/04/17 10:33:14;;;;;;;28.33;17.95;;;;;;;18.07;54.81;102620.13;5014137;28;20080;-68
2023/04/17 10:35:40;;;;;;;30.83;18.67;;;;;;;18.31;53.45;102616.75;4996478;28;20065;-68
2023/04/17 10:38:07;;;;;;;27.20;18.45;;;;;;;18.15;51.68;102631.78;5014031;28;20568;-70
2023/04/17 10:40:37;;;;;;;29.13;18.17;;;;;;;17.98;52.56;102631.63;5013603;28;20196;-69
2023/04/17 10:43:09;;;;;;;27.33;18.40;;;;;;;17.82;53.78;102627.97;5014146;28;20033;-67
2023/04/17 10:45:50;;;;;;;27.02;17.92;;;;;;;18.07;52.03;102622.78;5013891;28;20511;-66
2023/04/17 10:48:26;;;;;;;27.63;17.95;;;;;;;18.11;50.49;102617.47;5014051;28;20038;-68
2023/04/17 10:50:52;;;;;;;27.77;18.38;;;;;;;17.81;50.98;102622.56;5013944;28;20044;-68
2023/04/17 10:53:40;;;;;;;29.42;19.42;;;;;;;17.84;52.16;102625.28;5014322;28;20030;-67
2023/04/17 10:56:06;;;;;;;31.30;19.83;;;;;;;17.85;52.57;102611.03;5014795;28;20030;-66
2023/04/17 10:58:31;;;;;;;26.23;18.58;;;;;;;17.94;53.00;102613.78;5014483;28;20068;-67
2023/04/17 11:01:02;;;;;;;27.88;18.23;;;;;;;18.16;52.66;102598.81;4996372;28;20034;-66
2023/04/17 11:03:29;;;;;;;27.65;18.33;;;;;;;17.96;51.87;102604.88;5014021;28;20028;-67
2023/04/17 11:05:57;;;;;;;28.35;18.80;;;;;;;17.83;51.34;102607.47;5013744;28;20049;-68
2023/04/17 11:08:23;;;;;;;26.80;18.60;;;;;;;17.63;52.21;102605.44;5013736;28;20026;-68
2023/04/17 11:10:54;;;;;;;27.10;17.25;;;;;;;17.71;51.34;102601.06;5013731;28;20049;-66
2023/04/17 11:13:19;;;;;;;25.63;17.05;;;;;;;17.74;50.17;102606.50;4995952;28;20068;-65